createdAt,value
2018-07-26T20:58:00.598Z,1013.65
2018-07-26T20:59:00.582Z,1013.67
2018-07-26T21:00:00.566Z,1013.65
2018-07-26T21:01:00.550Z,1013.68
2018-07-26T21:04:00.860Z,1013.72
2018-07-26T21:05:00.843Z,1013.68
2018-07-26T21:06:00.843Z,1013.72
2018-07-26T21:07:00.848Z,1013.77
2018-07-26T21:08:00.813Z,1013.73
2018-07-26T21:09:00.792Z,1013.75
2018-07-26T21:10:00.767Z,1013.76
2018-07-26T21:11:00.751Z,1013.74
2018-07-26T21:12:00.737Z,1013.73
2018-07-26T21:13:00.722Z,1013.74
2018-07-26T21:14:00.708Z,1013.70
2018-07-26T21:15:00.696Z,1013.67
2018-07-26T21:16:00.680Z,1013.75
2018-07-26T21:17:00.667Z,1013.73
2018-07-26T21:18:00.660Z,1013.75
2018-07-26T21:19:00.640Z,1013.78
2018-07-26T21:20:00.627Z,1013.75
2018-07-26T21:21:00.614Z,1013.77
2018-07-26T21:22:00.600Z,1013.77
2018-07-26T21:23:00.585Z,1013.79
2018-07-26T21:24:00.607Z,1013.79
2018-07-26T21:25:00.558Z,1013.82
2018-07-26T21:26:00.618Z,1013.85
2018-07-26T21:27:00.532Z,1013.83
2018-07-26T21:28:00.519Z,1013.86
2018-07-26T21:29:00.507Z,1013.87
2018-07-26T21:30:00.492Z,1013.88
2018-07-26T21:31:00.479Z,1013.88
2018-07-26T21:32:00.481Z,1013.88
2018-07-26T21:33:00.452Z,1013.91
2018-07-26T21:34:00.440Z,1013.90
2018-07-26T21:35:00.425Z,1013.90
2018-07-26T21:36:00.413Z,1013.92
2018-07-26T21:37:00.400Z,1013.92
2018-07-26T21:38:00.386Z,1013.89
2018-07-26T21:39:00.373Z,1013.89
2018-07-26T21:40:00.360Z,1013.93
2018-07-26T21:41:00.348Z,1013.92
2018-07-26T21:42:00.332Z,1013.92
2018-07-26T21:43:00.320Z,1013.91
2018-07-26T21:44:00.308Z,1013.91
2018-07-26T21:45:00.294Z,1013.90
2018-07-26T21:46:00.281Z,1013.89
2018-07-26T21:47:00.268Z,1013.91
2018-07-26T21:48:00.254Z,1013.89
2018-07-26T21:49:00.241Z,1013.91
2018-07-26T21:50:00.227Z,1013.86
2018-07-26T21:51:00.213Z,1013.91
2018-07-26T21:52:00.203Z,1013.89
2018-07-26T21:53:00.187Z,1013.88
2018-07-26T21:54:00.174Z,1013.89
2018-07-26T21:55:00.161Z,1013.92
2018-07-26T21:56:00.147Z,1013.88
2018-07-26T21:57:00.135Z,1013.86
2018-07-26T21:58:00.123Z,1013.87
2018-07-26T21:59:00.106Z,1013.85
2018-07-26T22:00:00.096Z,1013.88
2018-07-26T22:01:00.118Z,1013.89
2018-07-26T22:02:00.066Z,1013.85
2018-07-26T22:03:00.054Z,1013.82
2018-07-26T22:04:00.042Z,1013.84
2018-07-26T22:05:00.027Z,1013.81
2018-07-26T22:06:00.014Z,1013.82
2018-07-26T22:07:00.001Z,1013.87
2018-07-26T22:07:59.986Z,1013.83
2018-07-26T22:08:59.972Z,1013.82
2018-07-26T22:09:59.957Z,1013.80
2018-07-26T22:10:59.945Z,1013.80
2018-07-26T22:11:59.932Z,1013.79
2018-07-26T22:12:59.918Z,1013.80
2018-07-26T22:13:59.905Z,1013.74
2018-07-26T22:14:59.896Z,1013.77
2018-07-26T22:15:59.929Z,1013.74
2018-07-26T22:16:59.863Z,1013.77
2018-07-26T22:17:59.851Z,1013.77
2018-07-26T22:18:59.838Z,1013.75
2018-07-26T22:19:59.824Z,1013.76
2018-07-26T22:20:59.809Z,1013.77
2018-07-26T22:21:59.813Z,1013.79
2018-07-26T22:22:59.784Z,1013.75
2018-07-26T22:23:59.771Z,1013.79
2018-07-26T22:24:59.756Z,1013.79
2018-07-26T22:25:59.742Z,1013.78
2018-07-26T22:26:59.731Z,1013.79
2018-07-26T22:27:59.717Z,1013.76
2018-07-26T22:28:59.716Z,1013.78
2018-07-26T22:29:59.707Z,1013.78
2018-07-26T22:30:59.676Z,1013.78
2018-07-26T22:31:59.662Z,1013.78
2018-07-26T22:32:59.647Z,1013.76
2018-07-26T22:33:59.634Z,1013.76
2018-07-26T22:34:59.621Z,1013.75
2018-07-26T22:35:59.607Z,1013.74
2018-07-26T22:36:59.594Z,1013.71
2018-07-26T22:37:59.600Z,1013.73
2018-07-26T22:38:59.566Z,1013.77
2018-07-26T22:39:59.552Z,1013.76
2018-07-26T22:40:59.537Z,1013.75
2018-07-26T22:41:59.524Z,1013.81
2018-07-26T22:42:59.511Z,1013.80
2018-07-26T22:43:59.496Z,1013.78
2018-07-26T22:44:59.482Z,1013.79
2018-07-26T22:45:59.470Z,1013.74
2018-07-26T22:46:59.455Z,1013.76
2018-07-26T22:47:59.442Z,1013.79
2018-07-26T22:48:59.426Z,1013.81
2018-07-26T22:49:59.413Z,1013.81
2018-07-26T22:50:59.401Z,1013.85
2018-07-26T22:51:59.386Z,1013.81
2018-07-26T22:52:59.371Z,1013.83
2018-07-26T22:53:59.359Z,1013.81
2018-07-26T22:54:59.344Z,1013.83
2018-07-26T22:55:59.330Z,1013.81
2018-07-26T22:56:59.317Z,1013.81
2018-07-26T22:57:59.302Z,1013.83
2018-07-26T22:58:59.304Z,1013.83
2018-07-26T22:59:59.274Z,1013.82
2018-07-26T23:00:59.259Z,1013.83
2018-07-26T23:01:59.247Z,1013.82
2018-07-26T23:02:59.235Z,1013.79
2018-07-26T23:03:59.219Z,1013.82
2018-07-26T23:04:59.205Z,1013.78
2018-07-26T23:05:59.191Z,1013.76
2018-07-26T23:06:59.177Z,1013.76
2018-07-26T23:07:59.164Z,1013.72
2018-07-26T23:08:59.149Z,1013.71
2018-07-26T23:09:59.135Z,1013.73
2018-07-26T23:10:59.123Z,1013.75
2018-07-26T23:11:59.113Z,1013.76
2018-07-26T23:12:59.094Z,1013.75
2018-07-26T23:13:59.079Z,1013.75
2018-07-26T23:14:59.066Z,1013.75
2018-07-26T23:15:59.053Z,1013.75
2018-07-26T23:16:59.037Z,1013.80
2018-07-26T23:17:59.025Z,1013.78
2018-07-26T23:18:59.009Z,1013.78
2018-07-26T23:19:59.001Z,1013.79
2018-07-26T23:20:58.982Z,1013.77
2018-07-26T23:21:58.967Z,1013.78
2018-07-26T23:22:58.954Z,1013.81
2018-07-26T23:23:58.940Z,1013.80
2018-07-26T23:24:58.924Z,1013.75
2018-07-26T23:25:58.911Z,1013.72
2018-07-26T23:26:58.897Z,1013.72
2018-07-26T23:27:58.884Z,1013.75
2018-07-26T23:28:58.868Z,1013.75
2018-07-26T23:29:58.854Z,1013.76
2018-07-26T23:30:58.839Z,1013.77
2018-07-26T23:31:58.826Z,1013.76
2018-07-26T23:32:58.812Z,1013.78
2018-07-26T23:33:58.801Z,1013.75
2018-07-26T23:34:58.782Z,1013.77
2018-07-26T23:35:58.770Z,1013.74
2018-07-26T23:36:58.753Z,1013.75
2018-07-26T23:37:58.740Z,1013.71
2018-07-26T23:38:58.725Z,1013.74
2018-07-26T23:39:58.711Z,1013.76
2018-07-26T23:40:58.696Z,1013.76
2018-07-26T23:41:58.682Z,1013.75
2018-07-26T23:42:58.667Z,1013.75
2018-07-26T23:43:58.657Z,1013.75
2018-07-26T23:44:58.638Z,1013.75
2018-07-26T23:45:58.652Z,1013.73
2018-07-26T23:46:58.612Z,1013.69
2018-07-26T23:47:58.596Z,1013.66
2018-07-26T23:48:58.580Z,1013.69
2018-07-26T23:49:58.565Z,1013.67
2018-07-26T23:50:58.554Z,1013.64
2018-07-26T23:51:58.537Z,1013.68
2018-07-26T23:52:58.523Z,1013.67
2018-07-26T23:53:58.508Z,1013.65
2018-07-26T23:54:58.493Z,1013.64
2018-07-26T23:55:58.479Z,1013.58
2018-07-26T23:56:58.464Z,1013.60
2018-07-26T23:57:58.450Z,1013.56
2018-07-26T23:58:58.436Z,1013.61
2018-07-26T23:59:58.420Z,1013.57
